createdAt,value
2022-11-18T00:02:23.278Z,7.03
2022-11-18T00:04:52.906Z,7.05
2022-11-18T00:07:22.441Z,7.10
2022-11-18T00:09:52.031Z,7.15
2022-11-18T00:12:40.361Z,7.05
2022-11-18T00:15:11.557Z,7.32
2022-11-18T00:17:44.555Z,6.80
2022-11-18T00:20:15.942Z,6.65
2022-11-18T00:22:46.184Z,7.00
2022-11-18T00:25:16.034Z,7.10
2022-11-18T00:27:45.610Z,6.80
2022-11-18T00:30:15.138Z,6.68
2022-11-18T00:32:46.271Z,7.18
2022-11-18T00:35:16.459Z,7.25
2022-11-18T00:37:46.723Z,7.60
2022-11-18T00:40:20.033Z,7.10
2022-11-18T00:42:52.888Z,7.38
2022-11-18T00:45:23.333Z,7.40
2022-11-18T00:47:53.447Z,7.00
2022-11-18T00:50:23.559Z,6.72
2022-11-18T00:52:53.141Z,7.20
2022-11-18T00:55:22.731Z,6.82
2022-11-18T00:57:52.223Z,6.32
2022-11-18T01:00:22.204Z,7.20
2022-11-18T01:02:52.251Z,6.70
2022-11-18T01:05:21.812Z,6.57
2022-11-18T01:07:51.337Z,7.15
2022-11-18T01:10:20.899Z,6.38
2022-11-18T01:13:08.553Z,7.60
2022-11-18T01:15:42.990Z,6.78
2022-11-18T01:18:13.757Z,7.07
2022-11-18T01:20:44.505Z,8.55
2022-11-18T01:23:14.933Z,9.15
2022-11-18T01:25:45.561Z,8.88
2022-11-18T01:28:18.850Z,9.55
2022-11-18T01:30:54.430Z,9.73
2022-11-18T01:33:26.147Z,9.75
2022-11-18T01:35:55.963Z,9.57
2022-11-18T01:38:25.540Z,10.13
2022-11-18T01:40:55.936Z,10.55
2022-11-18T01:43:26.740Z,11.43
2022-11-18T01:45:56.611Z,10.57
2022-11-18T01:48:31.097Z,11.13
2022-11-18T01:51:05.793Z,11.50
2022-11-18T01:53:37.805Z,11.00
2022-11-18T01:56:09.860Z,11.93
2022-11-18T01:58:40.911Z,10.88
2022-11-18T02:01:11.134Z,10.90
2022-11-18T02:03:41.595Z,11.38
2022-11-18T02:06:11.862Z,10.68
2022-11-18T02:08:42.995Z,11.10
2022-11-18T02:11:36.108Z,10.55
2022-11-18T02:14:07.423Z,10.43
2022-11-18T02:16:50.174Z,10.55
2022-11-18T02:19:34.875Z,10.38
2022-11-18T02:22:23.236Z,10.93
2022-11-18T02:25:07.630Z,10.35
2022-11-18T02:28:06.798Z,10.60
2022-11-18T02:30:37.580Z,9.93
2022-11-18T02:33:07.574Z,10.15
2022-11-18T02:35:47.806Z,9.98
2022-11-18T02:38:31.428Z,9.43
2022-11-18T02:41:02.300Z,9.75
2022-11-18T02:43:36.089Z,9.25
2022-11-18T02:46:08.768Z,9.27
2022-11-18T02:48:40.937Z,9.23
2022-11-18T02:51:11.587Z,9.07
2022-11-18T02:53:41.613Z,9.50
2022-11-18T02:56:11.697Z,9.20
2022-11-18T02:58:41.260Z,8.73
2022-11-18T03:01:16.429Z,8.73
2022-11-18T03:03:46.115Z,8.05
2022-11-18T03:06:22.272Z,8.25
2022-11-18T03:09:15.301Z,8.18
2022-11-18T03:12:05.253Z,8.00
2022-11-18T03:14:53.342Z,8.40
2022-11-18T03:17:41.529Z,8.13
2022-11-18T03:20:14.625Z,7.90
2022-11-18T03:22:57.870Z,8.10
2022-11-18T03:25:28.157Z,8.05
2022-11-18T03:28:17.225Z,8.73
2022-11-18T03:30:49.875Z,9.23
2022-11-18T03:33:21.207Z,8.05
2022-11-18T03:35:51.661Z,8.88
2022-11-18T03:38:23.566Z,8.57
2022-11-18T03:40:54.753Z,7.97
2022-11-18T03:43:25.333Z,8.75
2022-11-18T03:45:57.391Z,8.38
2022-11-18T03:48:34.492Z,8.23
2022-11-18T03:51:07.342Z,8.70
2022-11-18T03:53:38.490Z,8.60
2022-11-18T03:56:16.956Z,8.73
2022-11-18T03:58:51.225Z,8.75
2022-11-18T04:01:27.430Z,8.52
2022-11-18T04:03:57.855Z,9.02
2022-11-18T04:06:30.813Z,9.10
2022-11-18T04:09:01.893Z,8.98
2022-11-18T04:11:52.435Z,9.00
2022-11-18T04:14:22.851Z,9.65
2022-11-18T04:16:56.149Z,9.77
2022-11-18T04:19:26.250Z,9.10
2022-11-18T04:21:56.275Z,11.18
2022-11-18T04:24:26.413Z,9.63
2022-11-18T04:26:56.155Z,10.45
2022-11-18T04:29:26.400Z,11.50
2022-11-18T04:31:56.406Z,11.45
2022-11-18T04:34:26.052Z,11.93
2022-11-18T04:36:56.116Z,12.30
2022-11-18T04:39:26.216Z,13.95
2022-11-18T04:41:58.821Z,14.73
2022-11-18T04:44:29.391Z,15.15
2022-11-18T04:46:59.912Z,17.42
2022-11-18T04:49:30.062Z,17.55
2022-11-18T04:51:59.713Z,19.73
2022-11-18T04:54:29.628Z,18.98
2022-11-18T04:56:59.180Z,20.00
2022-11-18T04:59:30.144Z,18.38
2022-11-18T05:02:02.255Z,17.85
2022-11-18T05:04:33.297Z,15.18
2022-11-18T05:07:03.642Z,13.88
2022-11-18T05:09:33.176Z,14.13
2022-11-18T05:12:21.039Z,13.77
2022-11-18T05:14:51.199Z,12.93
2022-11-18T05:17:21.217Z,11.65
2022-11-18T05:19:51.279Z,11.77
2022-11-18T05:22:20.945Z,11.13
2022-11-18T05:24:52.059Z,10.25
2022-11-18T05:27:22.478Z,11.10
2022-11-18T05:29:53.053Z,10.02
2022-11-18T05:32:23.315Z,9.45
2022-11-18T05:34:53.061Z,8.82
2022-11-18T05:37:22.988Z,9.10
2022-11-18T05:39:53.174Z,10.60
2022-11-18T05:42:41.406Z,9.93
2022-11-18T05:45:11.749Z,10.38
2022-11-18T05:48:01.001Z,10.38
2022-11-18T05:50:31.491Z,11.32
2022-11-18T05:53:01.384Z,12.88
2022-11-18T05:55:37.514Z,12.45
2022-11-18T05:58:07.660Z,15.73
2022-11-18T06:00:37.415Z,15.32
2022-11-18T06:03:09.467Z,14.52
2022-11-18T06:05:41.008Z,16.35
2022-11-18T06:08:10.576Z,16.20
2022-11-18T06:10:41.602Z,16.42
2022-11-18T06:13:12.248Z,14.45
2022-11-18T06:15:42.767Z,14.95
2022-11-18T06:18:13.892Z,13.30
2022-11-18T06:20:43.834Z,12.77
2022-11-18T06:23:13.541Z,12.70
2022-11-18T06:25:43.194Z,12.48
2022-11-18T06:28:13.491Z,12.00
2022-11-18T06:30:44.006Z,12.63
2022-11-18T06:33:14.090Z,11.30
2022-11-18T06:35:44.865Z,10.70
2022-11-18T06:38:14.855Z,10.45
2022-11-18T06:40:45.694Z,10.93
2022-11-18T06:43:34.125Z,10.82
2022-11-18T06:46:23.305Z,11.25
2022-11-18T06:48:53.295Z,11.55
2022-11-18T06:51:24.210Z,10.80
2022-11-18T06:53:54.621Z,11.77
2022-11-18T06:56:24.773Z,12.25
2022-11-18T06:58:56.159Z,11.60
2022-11-18T07:01:29.585Z,11.00
2022-11-18T07:04:00.523Z,11.95
2022-11-18T07:06:31.649Z,10.73
2022-11-18T07:09:04.644Z,11.20
2022-11-18T07:11:37.214Z,9.95
2022-11-18T07:14:07.019Z,9.85
2022-11-18T07:16:37.287Z,9.88
2022-11-18T07:19:12.880Z,8.73
2022-11-18T07:21:44.500Z,7.82
2022-11-18T07:24:15.235Z,8.88
2022-11-18T07:26:45.509Z,8.50
2022-11-18T07:29:15.291Z,9.05
2022-11-18T07:31:45.551Z,9.23
2022-11-18T07:34:15.716Z,9.10
2022-11-18T07:36:45.929Z,10.05
2022-11-18T07:39:15.968Z,9.70
2022-11-18T07:41:45.794Z,8.93
2022-11-18T07:44:18.096Z,9.18
2022-11-18T07:46:50.470Z,9.63
2022-11-18T07:49:20.735Z,9.02
2022-11-18T07:51:50.941Z,8.93
2022-11-18T07:54:20.478Z,8.73
2022-11-18T07:56:50.019Z,9.70
2022-11-18T07:59:19.956Z,8.32
2022-11-18T08:01:50.233Z,8.73
2022-11-18T08:04:19.985Z,7.75
2022-11-18T08:06:49.836Z,9.15
2022-11-18T08:09:20.095Z,8.93
2022-11-18T08:11:49.974Z,8.18
2022-11-18T08:14:20.849Z,8.63
2022-11-18T08:16:50.862Z,7.88
2022-11-18T08:19:21.015Z,8.13
2022-11-18T08:21:50.866Z,7.22
2022-11-18T08:24:21.224Z,8.48
2022-11-18T08:26:51.018Z,8.15
2022-11-18T08:29:25.080Z,8.00
2022-11-18T08:31:55.989Z,7.70
2022-11-18T08:34:26.518Z,7.38
2022-11-18T08:36:56.755Z,7.80
2022-11-18T08:39:27.486Z,7.63
2022-11-18T08:41:59.589Z,7.85
2022-11-18T08:44:29.656Z,7.72
2022-11-18T08:47:00.105Z,7.78
2022-11-18T08:49:32.505Z,7.55
2022-11-18T08:52:03.003Z,8.10
2022-11-18T08:54:35.267Z,7.28
2022-11-18T08:57:05.203Z,7.50
2022-11-18T08:59:34.948Z,6.85
2022-11-18T09:02:04.999Z,7.38
2022-11-18T09:04:35.898Z,8.38
2022-11-18T09:07:06.124Z,7.95
2022-11-18T09:09:36.085Z,7.20
2022-11-18T09:12:06.523Z,7.38
2022-11-18T09:17:27.876Z,7.57
2022-11-18T09:19:57.721Z,7.10
2022-11-18T09:22:27.938Z,7.18
2022-11-18T09:24:58.161Z,7.40
2022-11-18T09:27:28.689Z,6.95
2022-11-18T09:29:58.270Z,6.45
2022-11-18T09:32:27.846Z,7.97
2022-11-18T09:34:57.851Z,7.07
2022-11-18T09:37:28.056Z,6.60
2022-11-18T09:39:59.506Z,7.03
2022-11-18T09:42:29.393Z,7.25
2022-11-18T09:45:34.948Z,7.13
2022-11-18T09:48:05.442Z,6.68
2022-11-18T09:50:49.050Z,6.88
2022-11-18T09:53:24.009Z,6.70
2022-11-18T09:55:53.917Z,6.78
2022-11-18T09:58:25.103Z,6.95
2022-11-18T10:00:55.950Z,6.65
2022-11-18T10:03:28.915Z,6.38
2022-11-18T10:06:11.707Z,7.15
2022-11-18T10:08:43.472Z,6.53
2022-11-18T10:11:13.625Z,7.20
2022-11-18T10:13:48.534Z,6.68
2022-11-18T10:16:27.913Z,6.45
2022-11-18T10:19:05.056Z,7.13
2022-11-18T10:21:40.730Z,6.20
2022-11-18T10:24:24.039Z,6.55
2022-11-18T10:26:59.181Z,6.07
2022-11-18T10:29:29.328Z,5.95
2022-11-18T10:32:04.183Z,6.40
2022-11-18T10:34:38.089Z,6.47
2022-11-18T10:37:08.880Z,5.75
2022-11-18T10:39:49.141Z,5.70
2022-11-18T10:42:23.229Z,6.00
2022-11-18T10:44:54.077Z,6.60
2022-11-18T10:47:29.659Z,5.80
2022-11-18T10:50:03.271Z,5.90
2022-11-18T10:52:32.917Z,6.15
2022-11-18T10:55:10.339Z,6.15
2022-11-18T10:57:44.545Z,6.22
2022-11-18T11:00:32.668Z,6.45
2022-11-18T11:03:08.410Z,5.60
2022-11-18T11:05:37.955Z,6.32
2022-11-18T11:08:35.195Z,6.13
2022-11-18T11:10:58.654Z,6.20
2022-11-18T11:13:29.607Z,6.00
2022-11-18T11:16:00.457Z,5.38
2022-11-18T11:18:43.458Z,6.32
2022-11-18T11:21:14.586Z,6.28
2022-11-18T11:23:44.939Z,5.55
2022-11-18T11:29:23.418Z,5.50
2022-11-18T11:32:10.175Z,5.68
2022-11-18T11:34:44.320Z,5.38
2022-11-18T11:37:31.745Z,6.38
2022-11-18T11:40:07.121Z,5.85
2022-11-18T11:42:57.740Z,5.82
2022-11-18T11:45:27.783Z,5.93
2022-11-18T11:48:10.212Z,5.97
2022-11-18T11:51:03.353Z,5.97
2022-11-18T11:53:48.996Z,5.63
2022-11-18T11:56:22.779Z,5.13
2022-11-18T11:59:14.407Z,5.30
2022-11-18T12:01:47.195Z,5.43
2022-11-18T12:04:25.996Z,5.00
2022-11-18T12:06:56.321Z,5.38
2022-11-18T12:09:35.094Z,5.18
2022-11-18T12:12:32.709Z,5.00
2022-11-18T12:15:06.765Z,5.22
2022-11-18T12:17:40.760Z,5.20
2022-11-18T12:20:29.475Z,5.47
2022-11-18T12:23:14.915Z,5.30
2022-11-18T12:25:50.615Z,4.90
2022-11-18T12:28:27.270Z,5.40
2022-11-18T12:31:29.850Z,5.00
2022-11-18T12:34:01.237Z,4.95
2022-11-18T12:36:41.322Z,4.63
2022-11-18T12:39:26.721Z,5.22
2022-11-18T12:42:17.736Z,4.53
2022-11-18T12:44:51.056Z,4.20
2022-11-18T12:47:58.132Z,5.20
2022-11-18T12:50:58.220Z,4.75
2022-11-18T12:53:33.867Z,4.60
2022-11-18T12:56:12.838Z,4.65
2022-11-18T12:58:46.661Z,4.85
2022-11-18T13:01:18.815Z,4.32
2022-11-18T13:03:48.586Z,4.20
2022-11-18T13:06:32.831Z,4.00
2022-11-18T13:09:24.606Z,4.47
2022-11-18T13:12:04.166Z,4.40
2022-11-18T13:14:56.661Z,4.45
2022-11-18T13:18:00.429Z,4.38
2022-11-18T13:20:36.391Z,4.07
2022-11-18T13:23:30.997Z,4.18
2022-11-18T13:26:08.568Z,4.47
2022-11-18T13:28:46.989Z,4.20
2022-11-18T13:31:32.061Z,3.75
2022-11-18T13:34:05.707Z,4.57
2022-11-18T13:36:36.842Z,3.90
2022-11-18T13:39:08.219Z,4.07
2022-11-18T13:41:38.328Z,3.72
2022-11-18T13:44:17.325Z,3.60
2022-11-18T13:46:52.351Z,3.83
2022-11-18T13:49:24.597Z,3.77
2022-11-18T13:51:58.239Z,3.53
2022-11-18T13:54:28.342Z,3.63
2022-11-18T13:56:58.343Z,3.20
2022-11-18T13:59:32.273Z,4.35
2022-11-18T14:02:02.588Z,3.92
2022-11-18T14:04:32.881Z,3.97
2022-11-18T14:07:21.186Z,3.60
2022-11-18T14:09:55.409Z,4.10
2022-11-18T14:12:26.645Z,4.30
2022-11-18T14:15:14.204Z,3.80
2022-11-18T14:18:03.754Z,3.83
2022-11-18T14:20:35.989Z,4.13
2022-11-18T14:23:08.326Z,4.15
2022-11-18T14:25:39.842Z,3.70
2022-11-18T14:28:16.076Z,4.10
2022-11-18T14:31:03.828Z,3.83
2022-11-18T14:33:37.217Z,3.88
2022-11-18T14:36:20.549Z,3.95
2022-11-18T14:41:54.280Z,4.43
2022-11-18T14:44:29.363Z,4.05
2022-11-18T14:47:07.745Z,3.58
2022-11-18T14:49:38.131Z,3.70
2022-11-18T14:52:08.390Z,3.95
2022-11-18T14:54:41.153Z,3.88
2022-11-18T14:57:15.236Z,3.75
2022-11-18T14:59:48.380Z,3.70
2022-11-18T15:02:19.053Z,3.80
2022-11-18T15:04:52.671Z,3.67
2022-11-18T15:07:24.472Z,3.75
2022-11-18T15:09:56.316Z,3.58
2022-11-18T15:12:29.389Z,4.40
2022-11-18T15:14:59.280Z,4.18
2022-11-18T15:17:28.798Z,3.75
2022-11-18T15:20:00.246Z,3.75
2022-11-18T15:22:30.811Z,3.70
2022-11-18T15:25:07.073Z,3.22
2022-11-18T15:27:40.516Z,3.83
2022-11-18T15:30:10.878Z,3.50
2022-11-18T15:32:41.745Z,3.30
2022-11-18T15:35:13.691Z,4.03
2022-11-18T15:37:44.674Z,3.58
2022-11-18T15:40:15.872Z,3.67
2022-11-18T15:42:52.078Z,3.90
2022-11-18T15:45:23.574Z,3.35
2022-11-18T15:47:57.309Z,3.88
2022-11-18T15:50:28.139Z,3.40
2022-11-18T15:53:00.344Z,3.13
2022-11-18T15:55:31.966Z,3.50
2022-11-18T15:58:05.435Z,3.33
2022-11-18T16:00:35.499Z,3.72
2022-11-18T16:03:08.419Z,3.55
2022-11-18T16:05:40.175Z,3.25
2022-11-18T16:08:11.904Z,3.13
2022-11-18T16:11:01.766Z,3.25
2022-11-18T16:13:32.630Z,3.22
2022-11-18T16:16:04.105Z,3.15
2022-11-18T16:18:40.589Z,3.30
2022-11-18T16:21:17.226Z,3.22
2022-11-18T16:23:48.776Z,3.08
2022-11-18T16:26:20.835Z,3.50
2022-11-18T16:28:52.441Z,3.22
2022-11-18T16:31:40.441Z,3.28
2022-11-18T16:34:16.623Z,2.90
2022-11-18T16:36:48.428Z,2.78
2022-11-18T16:39:24.321Z,3.40
2022-11-18T16:41:54.422Z,3.83
2022-11-18T16:44:28.486Z,2.90
2022-11-18T16:46:59.034Z,3.00
2022-11-18T16:49:32.722Z,3.15
2022-11-18T16:52:02.984Z,2.78
2022-11-18T16:54:38.281Z,3.30
2022-11-18T16:57:11.131Z,2.65
2022-11-18T16:59:44.541Z,3.33
2022-11-18T17:02:15.584Z,3.30
2022-11-18T17:04:49.196Z,2.95
2022-11-18T17:07:19.539Z,2.75
2022-11-18T17:10:01.553Z,2.70
2022-11-18T17:12:36.283Z,3.17
2022-11-18T17:15:09.767Z,2.53
2022-11-18T17:17:40.260Z,3.35
2022-11-18T17:20:12.164Z,2.60
2022-11-18T17:22:43.935Z,2.90
2022-11-18T17:25:16.150Z,2.90
2022-11-18T17:27:49.509Z,2.80
2022-11-18T17:30:19.908Z,2.75
2022-11-18T17:32:54.140Z,2.83
2022-11-18T17:35:24.449Z,2.83
2022-11-18T17:37:55.872Z,2.50
2022-11-18T17:40:29.066Z,2.55
2022-11-18T17:43:05.539Z,2.67
2022-11-18T17:45:36.192Z,2.83
2022-11-18T17:48:09.349Z,2.42
2022-11-18T17:50:40.360Z,2.72
2022-11-18T17:53:12.224Z,2.35
2022-11-18T17:55:44.752Z,2.55
2022-11-18T17:58:15.062Z,2.45
2022-11-18T18:00:48.311Z,2.78
2022-11-18T18:03:21.521Z,2.40
2022-11-18T18:05:58.517Z,2.38
2022-11-18T18:08:32.560Z,2.70
2022-11-18T18:11:12.765Z,2.13
2022-11-18T18:14:00.521Z,2.38
2022-11-18T18:16:32.452Z,2.55
2022-11-18T18:19:04.242Z,2.65
2022-11-18T18:21:35.940Z,2.33
2022-11-18T18:24:09.483Z,2.47
2022-11-18T18:26:40.197Z,2.05
2022-11-18T18:29:13.265Z,2.40
2022-11-18T18:31:44.365Z,2.40
2022-11-18T18:34:14.604Z,2.20
2022-11-18T18:36:50.681Z,2.53
2022-11-18T18:39:26.571Z,2.40
2022-11-18T18:42:01.573Z,2.30
2022-11-18T18:44:51.019Z,2.20
2022-11-18T18:47:24.521Z,2.08
2022-11-18T18:49:56.221Z,2.30
2022-11-18T18:52:29.555Z,2.13
2022-11-18T18:55:00.038Z,2.20
2022-11-18T18:57:31.292Z,2.20
2022-11-18T19:00:01.542Z,2.03
2022-11-18T19:02:32.622Z,2.13
2022-11-18T19:05:04.191Z,2.63
2022-11-18T19:07:34.098Z,2.35
2022-11-18T19:10:06.631Z,2.13
2022-11-18T19:12:48.198Z,2.00
2022-11-18T19:15:18.207Z,1.98
2022-11-18T19:17:54.452Z,2.00
2022-11-18T19:20:37.459Z,1.88
2022-11-18T19:23:10.311Z,2.03
2022-11-18T19:25:46.761Z,1.85
2022-11-18T19:28:17.416Z,2.20
2022-11-18T19:30:49.614Z,2.03
2022-11-18T19:33:20.203Z,2.10
2022-11-18T19:35:49.934Z,1.90
2022-11-18T19:38:20.016Z,2.17
2022-11-18T19:40:49.764Z,2.00
2022-11-18T19:43:20.629Z,1.85
2022-11-18T19:45:56.970Z,1.75
2022-11-18T19:48:28.819Z,1.55
2022-11-18T19:51:12.450Z,1.67
2022-11-18T19:53:44.428Z,1.70
2022-11-18T19:56:15.218Z,1.90
2022-11-18T19:58:53.542Z,1.40
2022-11-18T20:01:28.579Z,1.73
2022-11-18T20:04:01.007Z,1.70
2022-11-18T20:06:32.646Z,1.55
2022-11-18T20:09:03.018Z,1.77
2022-11-18T20:11:38.993Z,1.85
2022-11-18T20:14:12.023Z,1.92
2022-11-18T20:16:48.421Z,1.63
2022-11-18T20:19:19.055Z,1.50
2022-11-18T20:21:50.464Z,1.80
2022-11-18T20:24:20.594Z,1.73
2022-11-18T20:26:50.502Z,1.67
2022-11-18T20:29:23.078Z,1.40
2022-11-18T20:31:54.746Z,1.42
2022-11-18T20:34:30.895Z,1.40
2022-11-18T20:37:12.325Z,1.40
2022-11-18T20:39:45.374Z,1.50
2022-11-18T20:42:52.884Z,1.45
2022-11-18T20:45:28.493Z,1.50
2022-11-18T20:48:00.009Z,1.50
2022-11-18T20:50:32.259Z,1.58
2022-11-18T20:53:05.316Z,1.45
2022-11-18T20:55:41.201Z,1.60
2022-11-18T20:58:11.263Z,1.15
2022-11-18T21:00:40.989Z,1.40
2022-11-18T21:03:13.453Z,1.13
2022-11-18T21:05:44.557Z,1.30
2022-11-18T21:08:16.830Z,1.25
2022-11-18T21:10:48.041Z,1.33
2022-11-18T21:13:37.985Z,1.50
2022-11-18T21:16:11.654Z,1.35
2022-11-18T21:18:45.316Z,1.30
2022-11-18T21:21:33.230Z,1.40
2022-11-18T21:24:09.506Z,1.25
2022-11-18T21:26:40.087Z,1.25
2022-11-18T21:29:10.717Z,1.17
2022-11-18T21:31:44.275Z,1.20
2022-11-18T21:34:17.546Z,1.20
2022-11-18T21:36:51.658Z,1.35
2022-11-18T21:39:28.424Z,1.40
2022-11-18T21:41:58.635Z,1.38
2022-11-18T21:44:31.594Z,1.40
2022-11-18T21:47:04.518Z,1.50
2022-11-18T21:49:36.100Z,1.35
2022-11-18T21:52:09.232Z,1.25
2022-11-18T21:54:39.477Z,1.33
2022-11-18T21:57:12.939Z,1.13
2022-11-18T21:59:44.305Z,1.20
2022-11-18T22:02:19.026Z,1.33
2022-11-18T22:04:55.657Z,1.15
2022-11-18T22:07:32.145Z,1.63
2022-11-18T22:10:05.158Z,1.40
2022-11-18T22:12:36.614Z,1.25
2022-11-18T22:15:08.037Z,1.27
2022-11-18T22:17:39.785Z,1.40
2022-11-18T22:20:11.350Z,1.25
2022-11-18T22:22:45.343Z,1.10
2022-11-18T22:25:15.967Z,1.10
2022-11-18T22:27:55.810Z,1.42
2022-11-18T22:30:32.000Z,1.00
2022-11-18T22:33:04.220Z,1.10
2022-11-18T22:35:35.584Z,1.40
2022-11-18T22:38:07.974Z,1.13
2022-11-18T22:40:38.015Z,1.40
2022-11-18T22:43:08.714Z,1.27
2022-11-18T22:45:40.618Z,1.15
2022-11-18T22:48:10.740Z,1.25
2022-11-18T22:50:51.525Z,1.35
2022-11-18T22:53:24.686Z,1.13
2022-11-18T22:56:04.097Z,1.45
2022-11-18T22:58:37.061Z,1.10
2022-11-18T23:01:08.011Z,1.88
2022-11-18T23:03:40.946Z,1.45
2022-11-18T23:06:12.839Z,1.33
2022-11-18T23:08:44.281Z,1.27
2022-11-18T23:11:37.263Z,1.60
2022-11-18T23:14:11.175Z,1.40
2022-11-18T23:16:45.131Z,1.48
2022-11-18T23:19:16.103Z,1.60
2022-11-18T23:21:52.928Z,1.70
2022-11-18T23:24:24.129Z,1.40
2022-11-18T23:26:55.915Z,1.48
2022-11-18T23:29:29.010Z,1.60
2022-11-18T23:32:00.796Z,1.50
2022-11-18T23:34:31.469Z,1.70
2022-11-18T23:37:04.600Z,1.70
2022-11-18T23:39:36.619Z,1.50
2022-11-18T23:42:08.569Z,1.40
2022-11-18T23:44:48.653Z,1.80
2022-11-18T23:47:20.351Z,1.73
2022-11-18T23:49:50.434Z,1.80
2022-11-18T23:52:20.633Z,1.67
2022-11-18T23:54:52.723Z,1.85
2022-11-18T23:57:24.358Z,1.52
2022-11-18T23:59:56.060Z,1.55
